createdAt,value
2023-03-05T00:01:40.723Z,12.50
2023-03-05T00:04:16.060Z,14.60
2023-03-05T00:06:46.067Z,16.23
2023-03-05T00:09:15.563Z,13.00
2023-03-05T00:11:44.095Z,12.90
2023-03-05T00:14:13.224Z,18.90
2023-03-05T00:16:41.999Z,24.37
2023-03-05T00:19:11.582Z,17.67
2023-03-05T00:21:41.361Z,17.87
2023-03-05T00:24:13.972Z,15.67
2023-03-05T00:26:42.682Z,18.37
2023-03-05T00:29:15.638Z,17.47
2023-03-05T00:31:46.849Z,17.07
2023-03-05T00:34:17.103Z,15.20
2023-03-05T00:36:47.308Z,14.87
2023-03-05T00:39:17.859Z,18.73
2023-03-05T00:41:46.430Z,13.93
2023-03-05T00:44:14.957Z,10.93
2023-03-05T00:46:43.299Z,17.53
2023-03-05T00:49:11.776Z,12.83
2023-03-05T00:51:40.211Z,11.37
2023-03-05T00:54:08.788Z,10.00
2023-03-05T00:56:38.619Z,10.33
2023-03-05T00:59:07.105Z,11.67
2023-03-05T01:01:35.529Z,9.73
2023-03-05T01:04:05.070Z,17.70
2023-03-05T01:06:33.482Z,20.27
2023-03-05T01:09:01.951Z,14.17
2023-03-05T01:11:32.140Z,12.13
2023-03-05T01:14:02.193Z,14.53
2023-03-05T01:16:31.080Z,14.30
2023-03-05T01:19:02.669Z,12.47
2023-03-05T01:21:31.560Z,13.17
2023-03-05T01:24:00.028Z,19.20
2023-03-05T01:26:28.641Z,15.07
2023-03-05T01:28:57.090Z,14.43
2023-03-05T01:31:27.472Z,14.10
2023-03-05T01:33:56.695Z,12.50
2023-03-05T01:36:25.476Z,10.67
2023-03-05T01:38:54.158Z,15.07
2023-03-05T01:41:22.851Z,20.13
2023-03-05T01:43:52.990Z,8.80
2023-03-05T01:46:36.628Z,15.17
2023-03-05T01:49:23.378Z,12.80
2023-03-05T01:52:03.877Z,13.47
2023-03-05T01:54:35.492Z,12.37
2023-03-05T01:57:10.570Z,15.97
2023-03-05T01:59:41.052Z,14.70
2023-03-05T02:02:11.059Z,11.33
2023-03-05T02:04:45.846Z,18.53
2023-03-05T02:07:16.359Z,11.77
2023-03-05T02:09:44.781Z,13.37
2023-03-05T02:12:15.120Z,13.40
2023-03-05T02:14:48.310Z,17.33
2023-03-05T02:17:21.017Z,11.13
2023-03-05T02:19:52.268Z,12.97
2023-03-05T02:22:24.941Z,16.77
2023-03-05T02:24:53.906Z,9.93
2023-03-05T02:27:35.201Z,12.03
2023-03-05T02:30:04.486Z,15.67
2023-03-05T02:32:32.790Z,12.17
2023-03-05T02:35:01.177Z,15.77
2023-03-05T02:37:31.294Z,8.30
2023-03-05T02:39:59.881Z,5.77
2023-03-05T02:42:28.562Z,9.93
2023-03-05T02:44:57.032Z,4.07
2023-03-05T02:47:25.347Z,11.60
2023-03-05T02:49:54.063Z,4.03
2023-03-05T02:52:23.336Z,13.10
2023-03-05T02:54:54.733Z,9.47
2023-03-05T02:57:24.895Z,10.50
2023-03-05T02:59:54.670Z,11.87
2023-03-05T03:02:23.866Z,13.10
2023-03-05T03:04:52.302Z,12.80
2023-03-05T03:07:21.133Z,17.33
2023-03-05T03:09:50.008Z,21.20
2023-03-05T03:12:19.819Z,17.57
2023-03-05T03:14:48.252Z,13.97
2023-03-05T03:17:18.912Z,18.23
2023-03-05T03:19:48.208Z,18.47
2023-03-05T03:22:17.886Z,12.50
2023-03-05T03:24:46.317Z,9.43
2023-03-05T03:27:14.737Z,14.53
2023-03-05T03:29:44.432Z,12.87
2023-03-05T03:32:12.831Z,8.20
2023-03-05T03:34:41.228Z,9.10
2023-03-05T03:37:10.134Z,7.57
2023-03-05T03:39:38.499Z,13.87
2023-03-05T03:42:07.351Z,15.63
2023-03-05T03:44:35.829Z,16.50
2023-03-05T03:47:05.850Z,7.23
2023-03-05T03:49:34.285Z,17.60
2023-03-05T03:52:02.826Z,15.73
2023-03-05T03:54:31.107Z,12.87
2023-03-05T03:56:59.651Z,18.70
2023-03-05T03:59:27.973Z,10.43
2023-03-05T04:01:59.403Z,12.20
2023-03-05T04:04:30.585Z,10.13
2023-03-05T04:06:59.141Z,13.67
2023-03-05T04:09:29.533Z,11.03
2023-03-05T04:11:57.965Z,15.97
2023-03-05T04:14:30.375Z,16.13
2023-03-05T04:16:58.910Z,9.63
2023-03-05T04:19:30.863Z,13.53
2023-03-05T04:21:59.761Z,11.43
2023-03-05T04:24:28.545Z,12.97
2023-03-05T04:26:56.962Z,20.83
2023-03-05T04:29:25.351Z,14.30
2023-03-05T04:31:53.870Z,11.17
2023-03-05T04:34:22.408Z,10.57
2023-03-05T04:36:52.234Z,10.67
2023-03-05T04:39:21.320Z,15.27
2023-03-05T04:41:49.994Z,11.47
2023-03-05T04:44:19.309Z,12.27
2023-03-05T04:46:47.742Z,12.40
2023-03-05T04:49:16.085Z,19.67
2023-03-05T04:51:44.461Z,14.83
2023-03-05T04:54:14.310Z,11.97
2023-03-05T04:56:42.740Z,21.07
2023-03-05T04:59:11.391Z,15.67
2023-03-05T05:01:40.189Z,8.33
2023-03-05T05:04:08.960Z,11.40
2023-03-05T05:06:37.286Z,12.53
2023-03-05T05:09:05.819Z,15.87
2023-03-05T05:11:35.664Z,15.77
2023-03-05T05:14:04.826Z,16.47
2023-03-05T05:16:33.573Z,14.43
2023-03-05T05:19:01.976Z,22.80
2023-03-05T05:21:30.418Z,16.70
2023-03-05T05:23:58.962Z,22.73
2023-03-05T05:26:27.854Z,15.77
2023-03-05T05:28:57.554Z,14.70
2023-03-05T05:31:25.801Z,18.87
2023-03-05T05:33:54.258Z,13.93
2023-03-05T05:36:22.865Z,17.77
2023-03-05T05:38:51.741Z,18.40
2023-03-05T05:41:20.819Z,17.23
2023-03-05T05:43:49.454Z,13.40
2023-03-05T05:46:21.229Z,16.30
2023-03-05T05:48:49.895Z,12.47
2023-03-05T05:51:20.990Z,14.87
2023-03-05T05:53:50.082Z,14.30
2023-03-05T05:56:19.126Z,9.50
2023-03-05T05:58:49.104Z,15.33
2023-03-05T06:01:22.072Z,19.37
2023-03-05T06:03:50.889Z,15.93
2023-03-05T06:06:22.194Z,16.27
2023-03-05T06:08:50.939Z,14.70
2023-03-05T06:11:20.424Z,17.63
2023-03-05T06:13:49.766Z,10.80
2023-03-05T06:16:21.661Z,13.70
2023-03-05T06:18:50.981Z,15.40
2023-03-05T06:21:20.972Z,16.03
2023-03-05T06:23:50.490Z,14.83
2023-03-05T06:26:21.753Z,18.40
2023-03-05T06:28:50.541Z,17.07
2023-03-05T06:31:22.481Z,14.23
2023-03-05T06:33:51.349Z,16.93
2023-03-05T06:36:21.578Z,15.40
2023-03-05T06:38:52.116Z,14.20
2023-03-05T06:41:23.264Z,16.10
2023-03-05T06:43:51.625Z,19.23
2023-03-05T06:46:23.578Z,16.53
2023-03-05T06:48:52.836Z,15.03
2023-03-05T06:51:24.827Z,12.57
2023-03-05T06:53:56.170Z,11.40
2023-03-05T06:56:24.652Z,19.33
2023-03-05T06:58:53.779Z,18.27
2023-03-05T07:01:23.956Z,15.67
2023-03-05T07:03:53.937Z,13.80
2023-03-05T07:06:23.514Z,22.77
2023-03-05T07:08:51.948Z,15.00
2023-03-05T07:11:23.971Z,18.97
2023-03-05T07:13:52.534Z,14.93
2023-03-05T07:16:24.946Z,18.53
2023-03-05T07:18:53.814Z,13.93
2023-03-05T07:21:24.716Z,18.90
2023-03-05T07:23:54.875Z,21.07
2023-03-05T07:26:24.308Z,13.50
2023-03-05T07:28:53.145Z,15.07
2023-03-05T07:31:27.546Z,17.00
2023-03-05T07:33:56.039Z,20.80
2023-03-05T07:36:26.895Z,19.57
2023-03-05T07:38:55.477Z,10.33
2023-03-05T07:41:24.518Z,16.43
2023-03-05T07:43:54.413Z,16.73
2023-03-05T07:46:27.790Z,14.67
2023-03-05T07:48:57.287Z,12.87
2023-03-05T07:51:27.310Z,13.13
2023-03-05T07:53:58.433Z,16.37
2023-03-05T07:56:31.762Z,9.93
2023-03-05T07:59:00.632Z,11.60
2023-03-05T08:01:31.154Z,13.80
2023-03-05T08:03:59.611Z,13.97
2023-03-05T08:06:28.049Z,16.93
2023-03-05T08:08:56.518Z,10.93
2023-03-05T08:11:25.000Z,11.30
2023-03-05T08:13:56.332Z,11.17
2023-03-05T08:16:26.114Z,11.57
2023-03-05T08:18:57.678Z,9.17
2023-03-05T08:21:29.564Z,14.97
2023-03-05T08:23:58.697Z,14.90
2023-03-05T08:26:29.051Z,11.13
2023-03-05T08:28:57.574Z,21.53
2023-03-05T08:31:27.871Z,14.90
2023-03-05T08:33:59.582Z,12.10
2023-03-05T08:36:29.276Z,11.23
2023-03-05T08:38:59.210Z,13.60
2023-03-05T08:41:27.729Z,17.13
2023-03-05T08:43:56.221Z,14.13
2023-03-05T08:46:25.056Z,13.47
2023-03-05T08:48:53.468Z,9.97
2023-03-05T08:51:25.850Z,11.57
2023-03-05T08:53:55.969Z,11.17
2023-03-05T08:56:26.365Z,14.60
2023-03-05T08:58:54.755Z,17.50
2023-03-05T09:01:24.163Z,20.97
2023-03-05T09:03:52.981Z,19.57
2023-03-05T09:06:22.945Z,20.03
2023-03-05T09:08:51.433Z,17.83
2023-03-05T09:11:20.703Z,24.47
2023-03-05T09:13:49.304Z,17.77
2023-03-05T09:16:19.855Z,17.63
2023-03-05T09:18:48.607Z,22.57
2023-03-05T09:21:18.650Z,16.80
2023-03-05T09:23:48.677Z,28.17
2023-03-05T09:26:19.479Z,21.97
2023-03-05T09:28:48.599Z,18.53
2023-03-05T09:31:17.272Z,24.33
2023-03-05T09:33:45.788Z,16.23
2023-03-05T09:36:20.849Z,19.77
2023-03-05T09:38:50.567Z,18.53
2023-03-05T09:41:28.099Z,17.53
2023-03-05T09:44:08.898Z,17.07
2023-03-05T09:46:49.515Z,14.37
2023-03-05T09:49:22.590Z,20.17
2023-03-05T09:51:55.850Z,15.37
2023-03-05T09:54:35.205Z,10.83
2023-03-05T09:57:05.604Z,14.37
2023-03-05T09:59:41.195Z,12.70
2023-03-05T10:02:22.161Z,12.10
2023-03-05T10:04:54.557Z,11.07
2023-03-05T10:07:27.540Z,15.97
2023-03-05T10:10:00.938Z,10.60
2023-03-05T10:12:42.478Z,10.67
2023-03-05T10:15:14.984Z,9.70
2023-03-05T10:18:05.984Z,9.00
2023-03-05T10:20:59.976Z,7.80
2023-03-05T10:23:38.050Z,4.03
2023-03-05T10:26:21.881Z,5.80
2023-03-05T10:29:03.818Z,3.93
2023-03-05T10:31:51.582Z,4.13
2023-03-05T10:34:49.583Z,3.83
2023-03-05T10:37:43.474Z,1.93
2023-03-05T10:40:19.777Z,5.43
2023-03-05T10:42:59.976Z,5.13
2023-03-05T10:45:33.383Z,5.30
2023-03-05T10:48:06.385Z,2.20
2023-03-05T10:50:38.219Z,2.23
2023-03-05T10:53:18.121Z,3.80
2023-03-05T10:55:46.543Z,3.77
2023-03-05T10:58:17.872Z,5.47
2023-03-05T11:01:01.422Z,4.07
2023-03-05T11:03:48.322Z,3.53
2023-03-05T11:06:17.177Z,8.00
2023-03-05T11:08:45.722Z,5.20
2023-03-05T11:11:17.816Z,3.90
2023-03-05T11:13:57.854Z,5.27
2023-03-05T11:16:29.460Z,5.30
2023-03-05T11:19:20.476Z,6.07
2023-03-05T11:22:07.543Z,8.77
2023-03-05T11:24:35.986Z,6.57
2023-03-05T11:27:22.541Z,8.33
2023-03-05T11:29:52.910Z,7.73
2023-03-05T11:32:24.627Z,9.23
2023-03-05T11:34:53.502Z,10.10
2023-03-05T11:37:25.872Z,9.17
2023-03-05T11:40:21.173Z,13.03
2023-03-05T11:42:55.875Z,13.73
2023-03-05T11:45:27.549Z,17.97
2023-03-05T11:47:59.641Z,12.23
2023-03-05T11:50:31.226Z,7.43
2023-03-05T11:53:03.811Z,10.07
2023-03-05T11:55:37.514Z,4.43
2023-03-05T11:58:23.815Z,5.53
2023-03-05T12:00:54.038Z,9.10
2023-03-05T12:03:25.872Z,4.87
2023-03-05T12:06:00.720Z,5.13
2023-03-05T12:08:33.539Z,3.93
2023-03-05T12:11:08.543Z,4.37
2023-03-05T12:13:43.316Z,5.33
2023-03-05T12:16:25.868Z,5.23
2023-03-05T12:19:18.414Z,2.73
2023-03-05T12:21:51.732Z,3.63
2023-03-05T12:24:40.716Z,3.03
2023-03-05T12:27:17.232Z,5.33
2023-03-05T12:29:49.212Z,2.87
2023-03-05T12:33:00.877Z,12.87
2023-03-05T12:35:37.457Z,5.50
2023-03-05T12:38:31.596Z,5.97
2023-03-05T12:41:39.709Z,4.37
2023-03-05T12:44:19.418Z,5.77
2023-03-05T12:47:19.381Z,2.50
2023-03-05T12:49:49.233Z,4.33
2023-03-05T12:52:29.395Z,5.23
2023-03-05T12:55:16.440Z,3.07
2023-03-05T12:57:47.162Z,2.57
2023-03-05T13:00:21.772Z,3.87
2023-03-05T13:02:56.154Z,5.90
2023-03-05T13:05:28.608Z,4.53
2023-03-05T13:08:16.044Z,4.00
2023-03-05T13:10:51.676Z,4.73
2023-03-05T13:13:21.671Z,4.03
2023-03-05T13:15:51.952Z,2.60
2023-03-05T13:18:25.163Z,6.10
2023-03-05T13:21:04.540Z,3.03
2023-03-05T13:23:35.954Z,4.47
2023-03-05T13:26:13.321Z,5.53
2023-03-05T13:28:42.662Z,2.90
2023-03-05T13:31:16.023Z,2.63
2023-03-05T13:33:54.249Z,9.00
2023-03-05T13:36:24.132Z,5.17
2023-03-05T13:38:54.755Z,5.07
2023-03-05T13:41:25.550Z,4.53
2023-03-05T13:43:56.046Z,3.70
2023-03-05T13:46:26.305Z,3.13
2023-03-05T13:48:55.036Z,4.27
2023-03-05T13:51:23.545Z,4.17
2023-03-05T13:53:54.257Z,4.67
2023-03-05T13:56:22.938Z,5.27
2023-03-05T13:58:54.275Z,3.70
2023-03-05T14:01:31.241Z,7.53
2023-03-05T14:04:05.543Z,3.60
2023-03-05T14:06:38.026Z,2.87
2023-03-05T14:09:18.759Z,5.50
2023-03-05T14:11:54.788Z,4.57
2023-03-05T14:14:24.931Z,5.03
2023-03-05T14:16:53.844Z,4.13
2023-03-05T14:19:40.508Z,2.97
2023-03-05T14:22:32.233Z,3.27
2023-03-05T14:25:02.146Z,2.27
2023-03-05T14:27:35.271Z,4.40
2023-03-05T14:30:06.569Z,2.40
2023-03-05T14:32:37.545Z,3.73
2023-03-05T14:35:08.049Z,4.13
2023-03-05T14:37:38.496Z,5.27
2023-03-05T14:40:20.893Z,2.43
2023-03-05T14:42:54.602Z,4.40
2023-03-05T14:45:25.953Z,3.60
2023-03-05T14:47:57.354Z,2.93
2023-03-05T14:50:28.786Z,2.93
2023-03-05T14:52:59.613Z,6.23
2023-03-05T14:55:31.866Z,5.43
2023-03-05T14:58:05.473Z,4.30
2023-03-05T15:00:34.100Z,2.27
2023-03-05T15:03:03.245Z,4.07
2023-03-05T15:05:32.064Z,3.00
2023-03-05T15:08:00.833Z,3.57
2023-03-05T15:10:30.851Z,3.07
2023-03-05T15:12:59.391Z,4.90
2023-03-05T15:15:28.310Z,2.90
2023-03-05T15:17:57.610Z,1.80
2023-03-05T15:20:28.495Z,1.80
2023-03-05T15:22:57.387Z,4.10
2023-03-05T15:25:26.914Z,3.90
2023-03-05T15:27:56.991Z,2.77
2023-03-05T15:30:27.853Z,3.17
2023-03-05T15:32:57.462Z,3.30
2023-03-05T15:35:26.326Z,3.00
2023-03-05T15:37:55.106Z,1.97
2023-03-05T15:40:23.762Z,5.30
2023-03-05T15:42:52.360Z,4.80
2023-03-05T15:45:22.719Z,3.53
2023-03-05T15:47:52.056Z,8.93
2023-03-05T15:50:22.040Z,5.23
2023-03-05T15:52:51.080Z,5.30
2023-03-05T15:55:19.821Z,4.73
2023-03-05T15:57:49.797Z,2.90
2023-03-05T16:00:23.823Z,3.40
2023-03-05T16:02:54.146Z,2.60
2023-03-05T16:05:22.958Z,4.67
2023-03-05T16:07:53.508Z,2.33
2023-03-05T16:10:25.763Z,3.30
2023-03-05T16:12:58.788Z,6.27
2023-03-05T16:15:30.423Z,5.07
2023-03-05T16:18:02.168Z,3.67
2023-03-05T16:20:30.945Z,3.63
2023-03-05T16:23:00.176Z,4.27
2023-03-05T16:25:28.648Z,3.00
2023-03-05T16:27:57.226Z,5.70
2023-03-05T16:30:25.804Z,5.97
2023-03-05T16:32:55.716Z,7.97
2023-03-05T16:35:24.731Z,4.77
2023-03-05T16:37:54.198Z,6.63
2023-03-05T16:40:22.911Z,5.80
2023-03-05T16:42:51.707Z,5.17
2023-03-05T16:45:20.302Z,5.27
2023-03-05T16:47:48.895Z,8.20
2023-03-05T16:50:18.673Z,7.07
2023-03-05T16:52:47.189Z,9.93
2023-03-05T16:55:15.972Z,8.90
2023-03-05T16:57:45.205Z,9.60
2023-03-05T17:00:14.794Z,9.00
2023-03-05T17:02:43.258Z,9.93
2023-03-05T17:05:12.824Z,10.00
2023-03-05T17:07:42.554Z,6.17
2023-03-05T17:10:12.300Z,9.17
2023-03-05T17:12:41.560Z,7.00
2023-03-05T17:15:10.792Z,9.23
2023-03-05T17:17:40.692Z,9.83
2023-03-05T17:20:11.113Z,9.17
2023-03-05T17:22:39.500Z,12.00
2023-03-05T17:25:10.196Z,6.63
2023-03-05T17:27:38.910Z,6.20
2023-03-05T17:30:09.380Z,6.67
2023-03-05T17:32:38.098Z,7.40
2023-03-05T17:35:07.200Z,9.33
2023-03-05T17:37:35.772Z,7.73
2023-03-05T17:40:05.400Z,8.03
2023-03-05T17:42:35.258Z,12.10
2023-03-05T17:45:04.621Z,10.07
2023-03-05T17:47:33.292Z,13.83
2023-03-05T17:50:02.703Z,9.70
2023-03-05T17:52:31.484Z,6.13
2023-03-05T17:55:00.377Z,7.87
2023-03-05T17:57:28.795Z,8.57
2023-03-05T17:59:59.285Z,8.37
2023-03-05T18:02:28.041Z,7.90
2023-03-05T18:04:57.636Z,10.50
2023-03-05T18:07:26.150Z,7.90
2023-03-05T18:09:54.696Z,9.83
2023-03-05T18:12:23.400Z,8.47
2023-03-05T18:14:51.882Z,9.70
2023-03-05T18:17:22.826Z,7.73
2023-03-05T18:19:51.354Z,9.10
2023-03-05T18:22:19.771Z,10.50
2023-03-05T18:24:48.188Z,9.70
2023-03-05T18:27:16.665Z,8.67
2023-03-05T18:29:45.138Z,10.90
2023-03-05T18:32:13.641Z,8.13
2023-03-05T18:34:43.505Z,10.83
2023-03-05T18:37:12.332Z,13.30
2023-03-05T18:39:40.747Z,9.10
2023-03-05T18:42:13.614Z,10.87
2023-03-05T18:44:42.657Z,10.13
2023-03-05T18:47:11.101Z,13.03
2023-03-05T18:49:39.445Z,8.73
2023-03-05T18:52:09.242Z,10.57
2023-03-05T18:54:37.702Z,9.57
2023-03-05T18:57:06.100Z,13.90
2023-03-05T18:59:34.661Z,10.27
2023-03-05T19:02:03.226Z,12.77
2023-03-05T19:04:31.653Z,11.43
2023-03-05T19:07:00.024Z,9.83
2023-03-05T19:09:47.966Z,12.73
2023-03-05T19:12:16.440Z,13.00
2023-03-05T19:14:44.927Z,13.87
2023-03-05T19:17:13.824Z,11.90
2023-03-05T19:19:43.931Z,8.57
2023-03-05T19:22:14.062Z,5.70
2023-03-05T19:24:44.499Z,7.50
2023-03-05T19:27:13.735Z,4.37
2023-03-05T19:29:43.957Z,5.73
2023-03-05T19:32:15.923Z,6.87
2023-03-05T19:34:45.081Z,6.80
2023-03-05T19:37:13.942Z,4.27
2023-03-05T19:39:44.374Z,4.93
2023-03-05T19:42:13.382Z,4.30
2023-03-05T19:44:42.279Z,7.77
2023-03-05T19:47:11.109Z,6.87
2023-03-05T19:49:39.590Z,6.33
2023-03-05T19:52:08.681Z,6.77
2023-03-05T19:54:37.287Z,8.57
2023-03-05T19:57:07.151Z,7.50
2023-03-05T19:59:35.694Z,5.87
2023-03-05T20:02:04.419Z,6.43
2023-03-05T20:04:33.336Z,6.70
2023-03-05T20:07:01.935Z,7.37
2023-03-05T20:09:30.545Z,6.43
2023-03-05T20:12:02.734Z,6.93
2023-03-05T20:14:32.855Z,6.90
2023-03-05T20:17:01.396Z,6.67
2023-03-05T20:19:30.031Z,6.67
2023-03-05T20:21:58.476Z,7.67
2023-03-05T20:24:26.803Z,7.33
2023-03-05T20:26:55.507Z,9.13
2023-03-05T20:29:24.001Z,8.37
2023-03-05T20:31:56.494Z,7.37
2023-03-05T20:34:27.089Z,14.47
2023-03-05T20:36:55.687Z,8.53
2023-03-05T20:39:24.250Z,8.90
2023-03-05T20:41:55.301Z,11.67
2023-03-05T20:44:24.093Z,13.33
2023-03-05T20:47:02.731Z,18.20
2023-03-05T20:49:34.256Z,13.20
2023-03-05T20:52:02.712Z,13.37
2023-03-05T20:54:31.360Z,8.83
2023-03-05T20:56:59.802Z,12.13
2023-03-05T20:59:28.234Z,8.53
2023-03-05T21:01:58.160Z,9.43
2023-03-05T21:04:27.100Z,10.57
2023-03-05T21:06:55.689Z,11.83
2023-03-05T21:09:24.210Z,13.80
2023-03-05T21:11:52.739Z,13.90
2023-03-05T21:14:21.167Z,14.77
2023-03-05T21:16:49.845Z,11.67
2023-03-05T21:19:19.640Z,16.50
2023-03-05T21:21:48.184Z,15.87
2023-03-05T21:24:17.964Z,14.67
2023-03-05T21:26:46.522Z,13.37
2023-03-05T21:29:15.149Z,14.00
2023-03-05T21:31:43.603Z,16.20
2023-03-05T21:34:12.303Z,14.40
2023-03-05T21:36:42.867Z,15.80
2023-03-05T21:39:11.461Z,17.33
2023-03-05T21:41:40.098Z,12.77
2023-03-05T21:44:10.607Z,12.47
2023-03-05T21:46:42.876Z,14.70
2023-03-05T21:49:11.360Z,14.50
2023-03-05T21:51:51.130Z,14.23
2023-03-05T21:54:25.355Z,13.87
2023-03-05T21:56:54.949Z,12.23
2023-03-05T21:59:23.354Z,11.93
2023-03-05T22:01:52.630Z,15.50
2023-03-05T22:04:21.488Z,13.07
2023-03-05T22:06:52.217Z,10.63
2023-03-05T22:09:20.851Z,17.10
2023-03-05T22:11:49.556Z,9.87
2023-03-05T22:14:18.203Z,11.73
2023-03-05T22:16:46.892Z,12.57
2023-03-05T22:19:15.491Z,14.10
2023-03-05T22:21:43.942Z,14.20
2023-03-05T22:24:13.789Z,11.87
2023-03-05T22:26:43.584Z,13.37
2023-03-05T22:29:13.120Z,13.60
2023-03-05T22:31:41.761Z,10.70
2023-03-05T22:34:10.259Z,11.47
2023-03-05T22:36:38.670Z,11.30
2023-03-05T22:39:07.013Z,12.77
2023-03-05T22:41:36.815Z,11.37
2023-03-05T22:44:05.302Z,11.43
2023-03-05T22:46:33.632Z,11.87
2023-03-05T22:49:02.120Z,16.97
2023-03-05T22:51:31.246Z,16.53
2023-03-05T22:53:59.805Z,14.07
2023-03-05T22:56:28.330Z,10.57
2023-03-05T22:58:58.660Z,10.33
2023-03-05T23:01:27.771Z,9.67
2023-03-05T23:04:03.884Z,9.23
2023-03-05T23:06:34.075Z,10.50
2023-03-05T23:09:05.032Z,11.23
2023-03-05T23:11:33.403Z,12.30
2023-03-05T23:14:03.267Z,10.93
2023-03-05T23:16:31.771Z,15.83
2023-03-05T23:19:00.143Z,11.73
2023-03-05T23:21:28.601Z,12.07
2023-03-05T23:23:57.809Z,12.47
2023-03-05T23:26:26.205Z,11.63
2023-03-05T23:28:54.539Z,10.57
2023-03-05T23:31:24.342Z,12.83
2023-03-05T23:33:52.820Z,14.33
2023-03-05T23:36:25.520Z,10.70
2023-03-05T23:38:57.603Z,10.33
2023-03-05T23:41:25.972Z,15.03
2023-03-05T23:43:54.287Z,10.93
2023-03-05T23:46:24.112Z,13.77
2023-03-05T23:48:52.425Z,12.17
2023-03-05T23:51:20.816Z,15.57
2023-03-05T23:53:49.572Z,12.57
2023-03-05T23:56:18.140Z,10.87
2023-03-05T23:58:46.436Z,16.93
